Ashby, Minnesota
Current Conditions -  °F | °C
As of 10:54 PM on Monday 22 Dec 2014 (Local Time) from KY63 Reporting Station
Light Snow Light Snow  
Wind Chill: 26°   Ceiling: 2400
Heat Index: 32°   Visibility: 3mi
Dew Point: 32°   Wind: 6mph
Humidity: 100%   Direction: 60°ENE
Pressure: 29.64"   Gusts: NA
Location:  46.09°N, 95.82°W
Report Text: KY63 230454Z AUTO 06005KT 3SM -SN SCT004 BKN024 OVC031 00/00 A2964 RMK AO2 P0001 T00000000
Loading
Personal Weather Stations






























Interactive Weather Map New forecast layout! Learn more

10-Day Weather Forecast

Advertisements
Track Severe Weather on mobile